sensor_id;sensor_type;location;lat;lon;timestamp;P1;durP1;ratioP1;P2;durP2;ratioP2
16577;SDS011;8401;52.528;13.340;2023-01-25T00:02:17;17.20;;;11.57;;
16577;SDS011;8401;52.528;13.340;2023-01-25T00:04:42;17.53;;;10.77;;
16577;SDS011;8401;52.528;13.340;2023-01-25T00:07:08;16.47;;;10.60;;
16577;SDS011;8401;52.528;13.340;2023-01-25T00:09:34;19.60;;;11.53;;
16577;SDS011;8401;52.528;13.340;2023-01-25T00:12:00;16.40;;;10.93;;
16577;SDS011;8401;52.528;13.340;2023-01-25T00:14:25;15.87;;;10.00;;
16577;SDS011;8401;52.528;13.340;2023-01-25T00:16:51;17.93;;;10.93;;
16577;SDS011;8401;52.528;13.340;2023-01-25T00:19:16;21.17;;;11.57;;
16577;SDS011;8401;52.528;13.340;2023-01-25T00:21:42;18.70;;;10.93;;
16577;SDS011;8401;52.528;13.340;2023-01-25T00:24:08;17.73;;;11.33;;
16577;SDS011;8401;52.528;13.340;2023-01-25T00:26:36;17.07;;;11.00;;
16577;SDS011;8401;52.528;13.340;2023-01-25T00:29:03;16.07;;;10.33;;
16577;SDS011;8401;52.528;13.340;2023-01-25T00:36:51;19.50;;;11.37;;
16577;SDS011;8401;52.528;13.340;2023-01-25T00:39:28;18.00;;;11.03;;
16577;SDS011;8401;52.528;13.340;2023-01-25T00:41:54;18.47;;;11.63;;
16577;SDS011;8401;52.528;13.340;2023-01-25T00:44:20;21.23;;;11.57;;
16577;SDS011;8401;52.528;13.340;2023-01-25T00:46:46;21.27;;;11.87;;
16577;SDS011;8401;52.528;13.340;2023-01-25T00:49:22;18.73;;;11.73;;
16577;SDS011;8401;52.528;13.340;2023-01-25T00:51:50;19.80;;;10.70;;
16577;SDS011;8401;52.528;13.340;2023-01-25T00:54:17;18.93;;;12.00;;
16577;SDS011;8401;52.528;13.340;2023-01-25T00:56:43;18.87;;;11.77;;
16577;SDS011;8401;52.528;13.340;2023-01-25T00:59:09;19.07;;;11.87;;
16577;SDS011;8401;52.528;13.340;2023-01-25T01:01:36;18.27;;;11.27;;
16577;SDS011;8401;52.528;13.340;2023-01-25T01:04:02;17.53;;;11.43;;
16577;SDS011;8401;52.528;13.340;2023-01-25T01:06:28;19.77;;;12.20;;
16577;SDS011;8401;52.528;13.340;2023-01-25T01:08:53;21.00;;;12.30;;
16577;SDS011;8401;52.528;13.340;2023-01-25T01:11:19;18.73;;;11.70;;
16577;SDS011;8401;52.528;13.340;2023-01-25T01:13:44;18.47;;;11.07;;
16577;SDS011;8401;52.528;13.340;2023-01-25T01:16:10;18.53;;;11.83;;
16577;SDS011;8401;52.528;13.340;2023-01-25T01:18:38;18.53;;;11.47;;
16577;SDS011;8401;52.528;13.340;2023-01-25T01:21:06;18.30;;;10.97;;
16577;SDS011;8401;52.528;13.340;2023-01-25T01:23:32;19.80;;;11.00;;
16577;SDS011;8401;52.528;13.340;2023-01-25T01:26:01;19.63;;;11.43;;
16577;SDS011;8401;52.528;13.340;2023-01-25T01:28:29;20.47;;;11.13;;
16577;SDS011;8401;52.528;13.340;2023-01-25T01:30:59;22.30;;;12.00;;
16577;SDS011;8401;52.528;13.340;2023-01-25T01:33:28;18.17;;;11.43;;
16577;SDS011;8401;52.528;13.340;2023-01-25T01:35:54;17.70;;;10.67;;
16577;SDS011;8401;52.528;13.340;2023-01-25T01:38:20;18.10;;;11.00;;
16577;SDS011;8401;52.528;13.340;2023-01-25T01:40:46;21.37;;;10.83;;
16577;SDS011;8401;52.528;13.340;2023-01-25T01:43:15;16.80;;;11.50;;
16577;SDS011;8401;52.528;13.340;2023-01-25T01:50:47;20.03;;;11.20;;
16577;SDS011;8401;52.528;13.340;2023-01-25T01:53:17;17.93;;;11.13;;
16577;SDS011;8401;52.528;13.340;2023-01-25T01:55:44;18.97;;;11.90;;
16577;SDS011;8401;52.528;13.340;2023-01-25T01:58:11;17.47;;;11.43;;
16577;SDS011;8401;52.528;13.340;2023-01-25T02:00:38;19.73;;;12.43;;
16577;SDS011;8401;52.528;13.340;2023-01-25T02:03:05;21.00;;;13.03;;
16577;SDS011;8401;52.528;13.340;2023-01-25T02:05:37;20.47;;;11.73;;
16577;SDS011;8401;52.528;13.340;2023-01-25T02:08:15;22.50;;;12.67;;
16577;SDS011;8401;52.528;13.340;2023-01-25T02:10:41;18.27;;;11.27;;
16577;SDS011;8401;52.528;13.340;2023-01-25T02:13:08;18.77;;;12.37;;
16577;SDS011;8401;52.528;13.340;2023-01-25T02:15:38;19.03;;;11.53;;
16577;SDS011;8401;52.528;13.340;2023-01-25T02:18:08;20.53;;;12.07;;
16577;SDS011;8401;52.528;13.340;2023-01-25T02:20:44;20.63;;;11.50;;
16577;SDS011;8401;52.528;13.340;2023-01-25T02:24:14;21.17;;;11.87;;
16577;SDS011;8401;52.528;13.340;2023-01-25T02:26:19;21.77;;;11.90;;
16577;SDS011;8401;52.528;13.340;2023-01-25T02:28:51;20.10;;;12.73;;
16577;SDS011;8401;52.528;13.340;2023-01-25T02:31:24;21.00;;;12.20;;
16577;SDS011;8401;52.528;13.340;2023-01-25T02:33:50;20.87;;;12.00;;
16577;SDS011;8401;52.528;13.340;2023-01-25T02:36:19;19.17;;;12.80;;
16577;SDS011;8401;52.528;13.340;2023-01-25T02:39:11;23.67;;;13.00;;
16577;SDS011;8401;52.528;13.340;2023-01-25T02:41:40;19.30;;;12.67;;
16577;SDS011;8401;52.528;13.340;2023-01-25T02:44:15;22.77;;;12.70;;
16577;SDS011;8401;52.528;13.340;2023-01-25T02:46:44;23.40;;;11.73;;
16577;SDS011;8401;52.528;13.340;2023-01-25T02:49:12;18.63;;;12.20;;
16577;SDS011;8401;52.528;13.340;2023-01-25T02:51:43;23.67;;;13.10;;
16577;SDS011;8401;52.528;13.340;2023-01-25T02:54:12;21.80;;;13.20;;
16577;SDS011;8401;52.528;13.340;2023-01-25T02:56:39;22.00;;;12.67;;
16577;SDS011;8401;52.528;13.340;2023-01-25T02:59:05;21.87;;;12.73;;
16577;SDS011;8401;52.528;13.340;2023-01-25T03:01:32;22.20;;;13.33;;
16577;SDS011;8401;52.528;13.340;2023-01-25T03:03:59;20.13;;;12.90;;
16577;SDS011;8401;52.528;13.340;2023-01-25T03:06:24;21.67;;;12.17;;
16577;SDS011;8401;52.528;13.340;2023-01-25T03:08:50;19.40;;;11.70;;
16577;SDS011;8401;52.528;13.340;2023-01-25T03:11:16;22.63;;;12.67;;
16577;SDS011;8401;52.528;13.340;2023-01-25T03:13:41;21.00;;;13.13;;
16577;SDS011;8401;52.528;13.340;2023-01-25T03:16:08;20.20;;;12.13;;
16577;SDS011;8401;52.528;13.340;2023-01-25T03:18:35;21.10;;;12.67;;
16577;SDS011;8401;52.528;13.340;2023-01-25T03:21:05;20.27;;;12.47;;
16577;SDS011;8401;52.528;13.340;2023-01-25T03:23:32;20.33;;;12.47;;
16577;SDS011;8401;52.528;13.340;2023-01-25T03:28:38;21.97;;;12.70;;
16577;SDS011;8401;52.528;13.340;2023-01-25T03:31:06;20.63;;;12.37;;
16577;SDS011;8401;52.528;13.340;2023-01-25T03:33:33;21.50;;;12.50;;
16577;SDS011;8401;52.528;13.340;2023-01-25T03:35:59;22.20;;;13.23;;
16577;SDS011;8401;52.528;13.340;2023-01-25T03:38:24;20.90;;;13.23;;
16577;SDS011;8401;52.528;13.340;2023-01-25T03:40:50;22.07;;;12.50;;
16577;SDS011;8401;52.528;13.340;2023-01-25T03:43:16;23.53;;;12.70;;
16577;SDS011;8401;52.528;13.340;2023-01-25T03:45:42;21.70;;;12.90;;
16577;SDS011;8401;52.528;13.340;2023-01-25T03:48:07;22.57;;;13.80;;
16577;SDS011;8401;52.528;13.340;2023-01-25T03:50:33;22.00;;;12.73;;
16577;SDS011;8401;52.528;13.340;2023-01-25T03:52:59;21.80;;;12.90;;
16577;SDS011;8401;52.528;13.340;2023-01-25T03:55:33;21.43;;;12.93;;
16577;SDS011;8401;52.528;13.340;2023-01-25T03:57:59;19.33;;;11.83;;
16577;SDS011;8401;52.528;13.340;2023-01-25T04:00:25;23.77;;;14.17;;
16577;SDS011;8401;52.528;13.340;2023-01-25T04:02:51;19.40;;;12.57;;
16577;SDS011;8401;52.528;13.340;2023-01-25T04:05:17;23.77;;;13.20;;
16577;SDS011;8401;52.528;13.340;2023-01-25T04:07:43;19.70;;;12.57;;
16577;SDS011;8401;52.528;13.340;2023-01-25T04:10:09;21.70;;;12.57;;
16577;SDS011;8401;52.528;13.340;2023-01-25T04:12:35;22.60;;;13.20;;
16577;SDS011;8401;52.528;13.340;2023-01-25T04:15:00;22.30;;;13.93;;
16577;SDS011;8401;52.528;13.340;2023-01-25T04:17:26;22.07;;;12.63;;
16577;SDS011;8401;52.528;13.340;2023-01-25T04:19:51;22.50;;;13.93;;
16577;SDS011;8401;52.528;13.340;2023-01-25T04:22:17;25.70;;;13.70;;
16577;SDS011;8401;52.528;13.340;2023-01-25T04:24:43;21.53;;;13.30;;
16577;SDS011;8401;52.528;13.340;2023-01-25T04:27:08;20.73;;;12.57;;
16577;SDS011;8401;52.528;13.340;2023-01-25T04:29:34;22.37;;;13.30;;
16577;SDS011;8401;52.528;13.340;2023-01-25T04:32:00;23.60;;;13.13;;
16577;SDS011;8401;52.528;13.340;2023-01-25T04:34:26;20.60;;;11.73;;
16577;SDS011;8401;52.528;13.340;2023-01-25T04:36:52;20.53;;;13.00;;
16577;SDS011;8401;52.528;13.340;2023-01-25T04:39:18;23.17;;;13.30;;
16577;SDS011;8401;52.528;13.340;2023-01-25T04:41:43;22.03;;;13.07;;
16577;SDS011;8401;52.528;13.340;2023-01-25T04:44:09;21.47;;;13.43;;
16577;SDS011;8401;52.528;13.340;2023-01-25T04:46:35;21.40;;;13.33;;
16577;SDS011;8401;52.528;13.340;2023-01-25T04:49:01;20.77;;;12.10;;
16577;SDS011;8401;52.528;13.340;2023-01-25T04:51:26;22.67;;;14.07;;
16577;SDS011;8401;52.528;13.340;2023-01-25T04:53:52;22.73;;;13.73;;
16577;SDS011;8401;52.528;13.340;2023-01-25T04:56:17;22.90;;;13.57;;
16577;SDS011;8401;52.528;13.340;2023-01-25T04:58:43;23.37;;;12.97;;
16577;SDS011;8401;52.528;13.340;2023-01-25T05:01:09;21.43;;;13.20;;
16577;SDS011;8401;52.528;13.340;2023-01-25T05:03:35;22.57;;;13.27;;
16577;SDS011;8401;52.528;13.340;2023-01-25T05:06:00;22.50;;;13.13;;
16577;SDS011;8401;52.528;13.340;2023-01-25T05:08:26;20.30;;;12.90;;
16577;SDS011;8401;52.528;13.340;2023-01-25T05:10:52;20.63;;;12.67;;
16577;SDS011;8401;52.528;13.340;2023-01-25T05:13:17;19.03;;;12.00;;
16577;SDS011;8401;52.528;13.340;2023-01-25T05:15:43;19.43;;;12.00;;
16577;SDS011;8401;52.528;13.340;2023-01-25T05:18:09;19.53;;;12.20;;
16577;SDS011;8401;52.528;13.340;2023-01-25T05:20:34;19.60;;;11.20;;
16577;SDS011;8401;52.528;13.340;2023-01-25T05:23:00;17.43;;;11.47;;
16577;SDS011;8401;52.528;13.340;2023-01-25T05:25:26;19.13;;;11.77;;
16577;SDS011;8401;52.528;13.340;2023-01-25T05:28:10;18.00;;;10.33;;
16577;SDS011;8401;52.528;13.340;2023-01-25T05:30:35;16.93;;;10.50;;
16577;SDS011;8401;52.528;13.340;2023-01-25T05:33:01;11.87;;;7.60;;
16577;SDS011;8401;52.528;13.340;2023-01-25T05:35:27;14.83;;;8.60;;
16577;SDS011;8401;52.528;13.340;2023-01-25T05:37:56;13.57;;;9.07;;
16577;SDS011;8401;52.528;13.340;2023-01-25T05:40:22;13.30;;;8.30;;
16577;SDS011;8401;52.528;13.340;2023-01-25T05:42:52;16.80;;;9.37;;
16577;SDS011;8401;52.528;13.340;2023-01-25T05:45:18;14.50;;;8.60;;
16577;SDS011;8401;52.528;13.340;2023-01-25T05:47:44;14.90;;;9.50;;
16577;SDS011;8401;52.528;13.340;2023-01-25T05:50:09;17.10;;;9.67;;
16577;SDS011;8401;52.528;13.340;2023-01-25T05:52:35;15.13;;;9.20;;
16577;SDS011;8401;52.528;13.340;2023-01-25T05:55:01;16.03;;;10.03;;
16577;SDS011;8401;52.528;13.340;2023-01-25T05:57:26;16.03;;;9.67;;
16577;SDS011;8401;52.528;13.340;2023-01-25T05:59:52;16.10;;;10.10;;
16577;SDS011;8401;52.528;13.340;2023-01-25T06:02:18;17.90;;;9.93;;
16577;SDS011;8401;52.528;13.340;2023-01-25T06:04:44;14.50;;;9.03;;
16577;SDS011;8401;52.528;13.340;2023-01-25T06:07:10;16.13;;;8.97;;
16577;SDS011;8401;52.528;13.340;2023-01-25T06:09:35;12.53;;;8.57;;
16577;SDS011;8401;52.528;13.340;2023-01-25T06:12:01;14.80;;;9.63;;
16577;SDS011;8401;52.528;13.340;2023-01-25T06:14:28;13.47;;;9.27;;
16577;SDS011;8401;52.528;13.340;2023-01-25T06:16:54;15.93;;;9.80;;
16577;SDS011;8401;52.528;13.340;2023-01-25T06:19:20;16.30;;;9.60;;
16577;SDS011;8401;52.528;13.340;2023-01-25T06:21:45;14.33;;;9.87;;
16577;SDS011;8401;52.528;13.340;2023-01-25T06:24:11;12.77;;;8.37;;
16577;SDS011;8401;52.528;13.340;2023-01-25T06:26:36;13.37;;;8.87;;
16577;SDS011;8401;52.528;13.340;2023-01-25T06:29:03;12.30;;;8.50;;
16577;SDS011;8401;52.528;13.340;2023-01-25T06:31:30;14.53;;;8.07;;
16577;SDS011;8401;52.528;13.340;2023-01-25T06:33:56;14.13;;;8.47;;
16577;SDS011;8401;52.528;13.340;2023-01-25T06:36:24;12.43;;;7.87;;
16577;SDS011;8401;52.528;13.340;2023-01-25T06:38:50;12.90;;;8.20;;
16577;SDS011;8401;52.528;13.340;2023-01-25T06:41:17;12.20;;;7.80;;
16577;SDS011;8401;52.528;13.340;2023-01-25T06:43:44;12.67;;;8.07;;
16577;SDS011;8401;52.528;13.340;2023-01-25T06:46:09;14.00;;;8.10;;
16577;SDS011;8401;52.528;13.340;2023-01-25T06:48:38;13.80;;;8.57;;
16577;SDS011;8401;52.528;13.340;2023-01-25T06:51:07;12.53;;;7.80;;
16577;SDS011;8401;52.528;13.340;2023-01-25T06:53:36;15.80;;;9.33;;
16577;SDS011;8401;52.528;13.340;2023-01-25T06:56:04;13.90;;;8.13;;
16577;SDS011;8401;52.528;13.340;2023-01-25T06:58:32;12.37;;;8.63;;
16577;SDS011;8401;52.528;13.340;2023-01-25T07:00:58;13.47;;;8.37;;
16577;SDS011;8401;52.528;13.340;2023-01-25T07:03:29;17.17;;;9.77;;
16577;SDS011;8401;52.528;13.340;2023-01-25T07:05:56;16.23;;;9.73;;
16577;SDS011;8401;52.528;13.340;2023-01-25T07:08:25;18.33;;;10.73;;
16577;SDS011;8401;52.528;13.340;2023-01-25T07:10:52;13.80;;;8.83;;
16577;SDS011;8401;52.528;13.340;2023-01-25T07:13:23;17.47;;;10.13;;
16577;SDS011;8401;52.528;13.340;2023-01-25T07:15:56;16.10;;;10.40;;
16577;SDS011;8401;52.528;13.340;2023-01-25T07:18:24;16.80;;;10.93;;
16577;SDS011;8401;52.528;13.340;2023-01-25T07:20:50;17.07;;;10.87;;
16577;SDS011;8401;52.528;13.340;2023-01-25T07:23:16;16.50;;;10.87;;
16577;SDS011;8401;52.528;13.340;2023-01-25T07:25:46;15.37;;;9.70;;
16577;SDS011;8401;52.528;13.340;2023-01-25T07:28:12;18.77;;;11.20;;
16577;SDS011;8401;52.528;13.340;2023-01-25T07:30:39;15.97;;;10.27;;
16577;SDS011;8401;52.528;13.340;2023-01-25T07:33:05;16.03;;;10.60;;
16577;SDS011;8401;52.528;13.340;2023-01-25T07:35:31;15.90;;;9.33;;
16577;SDS011;8401;52.528;13.340;2023-01-25T07:37:57;17.10;;;10.87;;
16577;SDS011;8401;52.528;13.340;2023-01-25T07:40:22;14.53;;;9.33;;
16577;SDS011;8401;52.528;13.340;2023-01-25T07:42:52;14.10;;;9.53;;
16577;SDS011;8401;52.528;13.340;2023-01-25T07:45:18;17.27;;;10.77;;
16577;SDS011;8401;52.528;13.340;2023-01-25T07:47:44;18.60;;;11.10;;
16577;SDS011;8401;52.528;13.340;2023-01-25T07:50:10;15.37;;;10.07;;
16577;SDS011;8401;52.528;13.340;2023-01-25T07:52:36;16.67;;;9.87;;
16577;SDS011;8401;52.528;13.340;2023-01-25T07:55:02;17.23;;;10.23;;
16577;SDS011;8401;52.528;13.340;2023-01-25T07:57:28;14.90;;;9.63;;
16577;SDS011;8401;52.528;13.340;2023-01-25T07:59:54;16.27;;;9.43;;
16577;SDS011;8401;52.528;13.340;2023-01-25T08:02:20;19.13;;;11.30;;
16577;SDS011;8401;52.528;13.340;2023-01-25T08:04:45;16.27;;;10.10;;
16577;SDS011;8401;52.528;13.340;2023-01-25T08:07:12;14.30;;;9.83;;
16577;SDS011;8401;52.528;13.340;2023-01-25T08:09:38;17.63;;;11.10;;
16577;SDS011;8401;52.528;13.340;2023-01-25T08:12:05;16.00;;;10.40;;
16577;SDS011;8401;52.528;13.340;2023-01-25T08:14:31;21.43;;;10.97;;
16577;SDS011;8401;52.528;13.340;2023-01-25T08:16:57;17.03;;;11.13;;
16577;SDS011;8401;52.528;13.340;2023-01-25T08:19:23;20.47;;;11.20;;
16577;SDS011;8401;52.528;13.340;2023-01-25T08:21:50;21.13;;;11.90;;
16577;SDS011;8401;52.528;13.340;2023-01-25T08:24:15;16.53;;;10.33;;
16577;SDS011;8401;52.528;13.340;2023-01-25T08:26:41;17.70;;;10.43;;
16577;SDS011;8401;52.528;13.340;2023-01-25T08:29:08;17.27;;;10.30;;
16577;SDS011;8401;52.528;13.340;2023-01-25T08:31:35;16.17;;;10.63;;
16577;SDS011;8401;52.528;13.340;2023-01-25T08:34:03;15.77;;;10.10;;
16577;SDS011;8401;52.528;13.340;2023-01-25T08:36:31;19.80;;;10.20;;
16577;SDS011;8401;52.528;13.340;2023-01-25T08:38:58;15.87;;;9.90;;
16577;SDS011;8401;52.528;13.340;2023-01-25T08:41:25;18.20;;;10.97;;
16577;SDS011;8401;52.528;13.340;2023-01-25T08:43:53;18.80;;;11.13;;
16577;SDS011;8401;52.528;13.340;2023-01-25T08:46:20;19.83;;;11.47;;
16577;SDS011;8401;52.528;13.340;2023-01-25T08:48:46;15.77;;;10.50;;
16577;SDS011;8401;52.528;13.340;2023-01-25T08:51:15;19.93;;;10.93;;
16577;SDS011;8401;52.528;13.340;2023-01-25T08:53:41;20.20;;;11.03;;
16577;SDS011;8401;52.528;13.340;2023-01-25T08:56:11;17.70;;;10.60;;
16577;SDS011;8401;52.528;13.340;2023-01-25T08:58:39;18.43;;;10.93;;
16577;SDS011;8401;52.528;13.340;2023-01-25T09:01:08;16.63;;;11.57;;
16577;SDS011;8401;52.528;13.340;2023-01-25T09:03:35;18.97;;;11.33;;
16577;SDS011;8401;52.528;13.340;2023-01-25T09:06:06;21.80;;;11.30;;
16577;SDS011;8401;52.528;13.340;2023-01-25T09:08:32;19.60;;;11.10;;
16577;SDS011;8401;52.528;13.340;2023-01-25T09:11:01;19.27;;;11.43;;
16577;SDS011;8401;52.528;13.340;2023-01-25T09:13:31;20.80;;;11.80;;
16577;SDS011;8401;52.528;13.340;2023-01-25T09:15:58;20.30;;;11.63;;
16577;SDS011;8401;52.528;13.340;2023-01-25T09:18:25;23.50;;;12.37;;
16577;SDS011;8401;52.528;13.340;2023-01-25T09:20:52;18.00;;;11.00;;
16577;SDS011;8401;52.528;13.340;2023-01-25T09:23:17;18.67;;;11.17;;
16577;SDS011;8401;52.528;13.340;2023-01-25T09:25:46;18.87;;;11.67;;
16577;SDS011;8401;52.528;13.340;2023-01-25T09:28:12;20.17;;;11.17;;
16577;SDS011;8401;52.528;13.340;2023-01-25T09:30:38;21.33;;;12.37;;
16577;SDS011;8401;52.528;13.340;2023-01-25T09:33:05;18.43;;;11.90;;
16577;SDS011;8401;52.528;13.340;2023-01-25T09:35:31;19.93;;;12.03;;
16577;SDS011;8401;52.528;13.340;2023-01-25T09:37:58;18.43;;;11.80;;
16577;SDS011;8401;52.528;13.340;2023-01-25T09:40:23;25.70;;;12.43;;
16577;SDS011;8401;52.528;13.340;2023-01-25T09:45:31;24.13;;;12.23;;
16577;SDS011;8401;52.528;13.340;2023-01-25T09:48:20;21.73;;;11.47;;
16577;SDS011;8401;52.528;13.340;2023-01-25T09:53:50;24.83;;;12.67;;
16577;SDS011;8401;52.528;13.340;2023-01-25T09:56:26;20.63;;;12.43;;
16577;SDS011;8401;52.528;13.340;2023-01-25T09:59:03;19.33;;;11.80;;
16577;SDS011;8401;52.528;13.340;2023-01-25T10:01:46;19.77;;;11.73;;
16577;SDS011;8401;52.528;13.340;2023-01-25T10:04:40;21.57;;;13.00;;
16577;SDS011;8401;52.528;13.340;2023-01-25T10:07:13;20.20;;;11.73;;
16577;SDS011;8401;52.528;13.340;2023-01-25T10:09:50;23.13;;;13.23;;
16577;SDS011;8401;52.528;13.340;2023-01-25T10:14:44;22.27;;;12.97;;
16577;SDS011;8401;52.528;13.340;2023-01-25T10:17:16;20.43;;;11.53;;
16577;SDS011;8401;52.528;13.340;2023-01-25T10:22:44;23.57;;;12.67;;
16577;SDS011;8401;52.528;13.340;2023-01-25T10:25:27;19.17;;;11.23;;
16577;SDS011;8401;52.528;13.340;2023-01-25T10:28:21;23.77;;;12.73;;
16577;SDS011;8401;52.528;13.340;2023-01-25T10:31:05;23.67;;;12.57;;
16577;SDS011;8401;52.528;13.340;2023-01-25T10:33:39;22.33;;;12.33;;
16577;SDS011;8401;52.528;13.340;2023-01-25T10:36:11;22.13;;;13.00;;
16577;SDS011;8401;52.528;13.340;2023-01-25T10:38:47;20.40;;;11.73;;
16577;SDS011;8401;52.528;13.340;2023-01-25T10:41:15;22.80;;;12.10;;
16577;SDS011;8401;52.528;13.340;2023-01-25T10:43:58;21.60;;;11.93;;
16577;SDS011;8401;52.528;13.340;2023-01-25T10:46:45;20.87;;;11.63;;
16577;SDS011;8401;52.528;13.340;2023-01-25T10:52:15;18.70;;;10.27;;
16577;SDS011;8401;52.528;13.340;2023-01-25T10:54:48;22.90;;;11.73;;
16577;SDS011;8401;52.528;13.340;2023-01-25T10:57:30;21.80;;;12.17;;
16577;SDS011;8401;52.528;13.340;2023-01-25T10:59:58;24.07;;;13.13;;
16577;SDS011;8401;52.528;13.340;2023-01-25T11:04:54;25.40;;;14.10;;
16577;SDS011;8401;52.528;13.340;2023-01-25T11:07:26;22.30;;;13.43;;
16577;SDS011;8401;52.528;13.340;2023-01-25T11:09:53;23.13;;;13.03;;
16577;SDS011;8401;52.528;13.340;2023-01-25T11:12:19;26.10;;;14.57;;
16577;SDS011;8401;52.528;13.340;2023-01-25T11:14:48;22.13;;;13.83;;
16577;SDS011;8401;52.528;13.340;2023-01-25T11:17:30;22.33;;;13.00;;
16577;SDS011;8401;52.528;13.340;2023-01-25T11:22:38;27.33;;;14.70;;
16577;SDS011;8401;52.528;13.340;2023-01-25T11:28:08;29.03;;;15.57;;
16577;SDS011;8401;52.528;13.340;2023-01-25T11:30:35;26.87;;;15.00;;
16577;SDS011;8401;52.528;13.340;2023-01-25T11:33:01;27.03;;;14.30;;
16577;SDS011;8401;52.528;13.340;2023-01-25T11:35:29;28.93;;;15.03;;
16577;SDS011;8401;52.528;13.340;2023-01-25T11:38:13;26.13;;;15.00;;
16577;SDS011;8401;52.528;13.340;2023-01-25T11:40:49;28.90;;;15.20;;
16577;SDS011;8401;52.528;13.340;2023-01-25T11:46:35;25.50;;;15.10;;
16577;SDS011;8401;52.528;13.340;2023-01-25T11:49:37;30.63;;;17.33;;
16577;SDS011;8401;52.528;13.340;2023-01-25T11:52:43;29.70;;;15.33;;
16577;SDS011;8401;52.528;13.340;2023-01-25T11:55:55;28.00;;;16.73;;
16577;SDS011;8401;52.528;13.340;2023-01-25T12:01:37;27.97;;;15.13;;
16577;SDS011;8401;52.528;13.340;2023-01-25T12:04:36;29.53;;;15.73;;
16577;SDS011;8401;52.528;13.340;2023-01-25T12:10:43;29.77;;;16.03;;
16577;SDS011;8401;52.528;13.340;2023-01-25T12:15:44;30.17;;;17.50;;
16577;SDS011;8401;52.528;13.340;2023-01-25T12:18:21;30.83;;;16.93;;
16577;SDS011;8401;52.528;13.340;2023-01-25T12:21:02;32.07;;;17.40;;
16577;SDS011;8401;52.528;13.340;2023-01-25T12:29:33;32.57;;;17.67;;
16577;SDS011;8401;52.528;13.340;2023-01-25T12:32:07;30.47;;;15.77;;
16577;SDS011;8401;52.528;13.340;2023-01-25T12:34:38;23.17;;;13.47;;
16577;SDS011;8401;52.528;13.340;2023-01-25T12:37:11;25.23;;;14.27;;
16577;SDS011;8401;52.528;13.340;2023-01-25T12:39:58;29.20;;;16.13;;
16577;SDS011;8401;52.528;13.340;2023-01-25T12:42:31;31.10;;;15.43;;
16577;SDS011;8401;52.528;13.340;2023-01-25T12:45:04;32.23;;;17.77;;
16577;SDS011;8401;52.528;13.340;2023-01-25T12:47:38;33.43;;;16.90;;
16577;SDS011;8401;52.528;13.340;2023-01-25T12:50:19;32.40;;;16.30;;
16577;SDS011;8401;52.528;13.340;2023-01-25T12:52:56;29.20;;;17.30;;
16577;SDS011;8401;52.528;13.340;2023-01-25T12:55:42;35.10;;;15.97;;
16577;SDS011;8401;52.528;13.340;2023-01-25T13:01:18;24.17;;;14.07;;
16577;SDS011;8401;52.528;13.340;2023-01-25T13:09:55;26.07;;;13.57;;
16577;SDS011;8401;52.528;13.340;2023-01-25T13:12:25;25.97;;;13.70;;
16577;SDS011;8401;52.528;13.340;2023-01-25T13:14:51;30.50;;;17.33;;
16577;SDS011;8401;52.528;13.340;2023-01-25T13:19:56;30.30;;;14.90;;
16577;SDS011;8401;52.528;13.340;2023-01-25T13:25:07;29.20;;;14.10;;
16577;SDS011;8401;52.528;13.340;2023-01-25T13:27:44;23.87;;;14.07;;
16577;SDS011;8401;52.528;13.340;2023-01-25T13:30:23;24.47;;;13.83;;
16577;SDS011;8401;52.528;13.340;2023-01-25T13:32:53;28.90;;;15.10;;
16577;SDS011;8401;52.528;13.340;2023-01-25T13:35:27;24.50;;;14.40;;
16577;SDS011;8401;52.528;13.340;2023-01-25T13:37:57;23.80;;;13.17;;
16577;SDS011;8401;52.528;13.340;2023-01-25T13:40:30;25.40;;;13.63;;
16577;SDS011;8401;52.528;13.340;2023-01-25T13:42:58;26.20;;;14.23;;
16577;SDS011;8401;52.528;13.340;2023-01-25T13:45:24;33.50;;;17.83;;
16577;SDS011;8401;52.528;13.340;2023-01-25T13:50:36;22.13;;;12.77;;
16577;SDS011;8401;52.528;13.340;2023-01-25T13:55:39;23.83;;;12.17;;
16577;SDS011;8401;52.528;13.340;2023-01-25T13:58:10;25.70;;;13.70;;
16577;SDS011;8401;52.528;13.340;2023-01-25T14:00:48;24.37;;;13.17;;
16577;SDS011;8401;52.528;13.340;2023-01-25T14:03:17;24.07;;;12.50;;
16577;SDS011;8401;52.528;13.340;2023-01-25T14:05:47;25.23;;;13.53;;
16577;SDS011;8401;52.528;13.340;2023-01-25T14:08:17;23.23;;;12.63;;
16577;SDS011;8401;52.528;13.340;2023-01-25T14:10:44;24.97;;;12.43;;
16577;SDS011;8401;52.528;13.340;2023-01-25T14:13:14;25.43;;;12.80;;
16577;SDS011;8401;52.528;13.340;2023-01-25T14:15:50;25.20;;;12.60;;
16577;SDS011;8401;52.528;13.340;2023-01-25T14:18:28;26.07;;;13.33;;
16577;SDS011;8401;52.528;13.340;2023-01-25T14:21:17;23.27;;;13.37;;
16577;SDS011;8401;52.528;13.340;2023-01-25T14:23:44;25.93;;;13.77;;
16577;SDS011;8401;52.528;13.340;2023-01-25T14:26:18;21.80;;;11.50;;
16577;SDS011;8401;52.528;13.340;2023-01-25T14:28:55;26.57;;;13.10;;
16577;SDS011;8401;52.528;13.340;2023-01-25T14:31:25;28.50;;;15.80;;
16577;SDS011;8401;52.528;13.340;2023-01-25T14:33:56;28.47;;;14.60;;
16577;SDS011;8401;52.528;13.340;2023-01-25T14:36:23;26.40;;;13.47;;
16577;SDS011;8401;52.528;13.340;2023-01-25T14:38:51;25.83;;;14.17;;
16577;SDS011;8401;52.528;13.340;2023-01-25T14:41:19;26.93;;;13.00;;
16577;SDS011;8401;52.528;13.340;2023-01-25T14:43:52;29.30;;;13.57;;
16577;SDS011;8401;52.528;13.340;2023-01-25T14:46:29;24.83;;;12.37;;
16577;SDS011;8401;52.528;13.340;2023-01-25T14:54:27;22.33;;;10.93;;
16577;SDS011;8401;52.528;13.340;2023-01-25T14:56:59;20.07;;;10.37;;
16577;SDS011;8401;52.528;13.340;2023-01-25T14:59:28;19.17;;;11.23;;
16577;SDS011;8401;52.528;13.340;2023-01-25T15:02:01;18.27;;;10.70;;
16577;SDS011;8401;52.528;13.340;2023-01-25T15:04:28;22.30;;;11.60;;
16577;SDS011;8401;52.528;13.340;2023-01-25T15:06:54;26.33;;;13.30;;
16577;SDS011;8401;52.528;13.340;2023-01-25T15:09:37;22.73;;;12.93;;
16577;SDS011;8401;52.528;13.340;2023-01-25T15:14:56;25.67;;;12.80;;
16577;SDS011;8401;52.528;13.340;2023-01-25T15:23:10;22.00;;;12.53;;
16577;SDS011;8401;52.528;13.340;2023-01-25T15:25:54;21.60;;;11.33;;
16577;SDS011;8401;52.528;13.340;2023-01-25T15:28:22;24.20;;;12.40;;
16577;SDS011;8401;52.528;13.340;2023-01-25T15:30:49;23.77;;;12.60;;
16577;SDS011;8401;52.528;13.340;2023-01-25T15:33:16;21.53;;;11.33;;
16577;SDS011;8401;52.528;13.340;2023-01-25T15:35:47;25.00;;;12.20;;
16577;SDS011;8401;52.528;13.340;2023-01-25T15:38:14;25.47;;;13.07;;
16577;SDS011;8401;52.528;13.340;2023-01-25T15:40:41;23.87;;;12.97;;
16577;SDS011;8401;52.528;13.340;2023-01-25T15:43:12;24.67;;;12.90;;
16577;SDS011;8401;52.528;13.340;2023-01-25T15:45:40;29.90;;;13.30;;
16577;SDS011;8401;52.528;13.340;2023-01-25T15:48:14;27.20;;;13.90;;
16577;SDS011;8401;52.528;13.340;2023-01-25T15:50:46;28.70;;;13.20;;
16577;SDS011;8401;52.528;13.340;2023-01-25T15:53:13;26.73;;;13.70;;
16577;SDS011;8401;52.528;13.340;2023-01-25T15:55:40;28.80;;;12.83;;
16577;SDS011;8401;52.528;13.340;2023-01-25T15:58:21;25.90;;;12.33;;
16577;SDS011;8401;52.528;13.340;2023-01-25T16:00:49;25.63;;;11.50;;
16577;SDS011;8401;52.528;13.340;2023-01-25T16:03:15;24.80;;;11.83;;
16577;SDS011;8401;52.528;13.340;2023-01-25T16:05:44;25.43;;;13.93;;